sensor_id;sensor_type;location;lat;lon;timestamp;temperature;humidity
2407;DHT22;37709;53.480;9.688;2023-03-23T00:02:16;9.50;99.90
2407;DHT22;37709;53.480;9.688;2023-03-23T00:04:43;9.50;99.90
2407;DHT22;37709;53.480;9.688;2023-03-23T00:07:09;9.50;99.90
2407;DHT22;37709;53.480;9.688;2023-03-23T00:09:35;9.50;99.90
2407;DHT22;37709;53.480;9.688;2023-03-23T00:12:07;9.50;99.90
2407;DHT22;37709;53.480;9.688;2023-03-23T00:14:35;9.50;99.90
2407;DHT22;37709;53.480;9.688;2023-03-23T00:17:10;9.50;99.90
2407;DHT22;37709;53.480;9.688;2023-03-23T00:19:40;9.50;99.90
2407;DHT22;37709;53.480;9.688;2023-03-23T00:22:12;9.50;99.90
2407;DHT22;37709;53.480;9.688;2023-03-23T00:24:39;9.60;99.90
2407;DHT22;37709;53.480;9.688;2023-03-23T00:27:05;9.60;99.90
2407;DHT22;37709;53.480;9.688;2023-03-23T00:29:31;9.60;99.90
2407;DHT22;37709;53.480;9.688;2023-03-23T00:31:58;9.60;99.90
2407;DHT22;37709;53.480;9.688;2023-03-23T00:34:25;9.60;99.90
2407;DHT22;37709;53.480;9.688;2023-03-23T00:36:53;9.60;99.90
2407;DHT22;37709;53.480;9.688;2023-03-23T00:39:23;9.60;99.90
2407;DHT22;37709;53.480;9.688;2023-03-23T00:41:54;9.60;99.90
2407;DHT22;37709;53.480;9.688;2023-03-23T00:44:31;9.60;99.90
2407;DHT22;37709;53.480;9.688;2023-03-23T00:46:59;9.60;99.90
2407;DHT22;37709;53.480;9.688;2023-03-23T00:49:26;9.60;99.90
2407;DHT22;37709;53.480;9.688;2023-03-23T00:51:53;9.60;99.90
2407;DHT22;37709;53.480;9.688;2023-03-23T00:54:20;9.60;99.90
2407;DHT22;37709;53.480;9.688;2023-03-23T00:56:50;9.60;99.90
2407;DHT22;37709;53.480;9.688;2023-03-23T00:59:16;9.60;99.90
2407;DHT22;37709;53.480;9.688;2023-03-23T01:01:44;9.60;99.90
2407;DHT22;37709;53.480;9.688;2023-03-23T01:04:10;9.60;99.90
2407;DHT22;37709;53.480;9.688;2023-03-23T01:06:40;9.60;99.90
2407;DHT22;37709;53.480;9.688;2023-03-23T01:09:08;9.60;99.90
2407;DHT22;37709;53.480;9.688;2023-03-23T01:11:35;9.60;99.90
2407;DHT22;37709;53.480;9.688;2023-03-23T01:14:04;9.60;99.90
2407;DHT22;37709;53.480;9.688;2023-03-23T01:16:31;9.60;99.90
2407;DHT22;37709;53.480;9.688;2023-03-23T01:18:57;9.70;99.90
2407;DHT22;37709;53.480;9.688;2023-03-23T01:21:24;9.70;99.90
2407;DHT22;37709;53.480;9.688;2023-03-23T01:23:51;9.70;99.90
2407;DHT22;37709;53.480;9.688;2023-03-23T01:26:42;9.70;99.90
2407;DHT22;37709;53.480;9.688;2023-03-23T01:29:09;9.70;99.90
2407;DHT22;37709;53.480;9.688;2023-03-23T01:31:35;9.70;99.90
2407;DHT22;37709;53.480;9.688;2023-03-23T01:34:03;9.70;99.90
2407;DHT22;37709;53.480;9.688;2023-03-23T01:36:30;9.80;99.90
2407;DHT22;37709;53.480;9.688;2023-03-23T01:39:02;9.70;99.90
2407;DHT22;37709;53.480;9.688;2023-03-23T01:41:31;9.70;99.90
2407;DHT22;37709;53.480;9.688;2023-03-23T01:44:05;9.70;99.90
2407;DHT22;37709;53.480;9.688;2023-03-23T01:46:46;9.70;99.90
2407;DHT22;37709;53.480;9.688;2023-03-23T01:49:16;9.70;99.90
2407;DHT22;37709;53.480;9.688;2023-03-23T01:51:49;9.80;99.90
2407;DHT22;37709;53.480;9.688;2023-03-23T01:54:20;9.80;99.90
2407;DHT22;37709;53.480;9.688;2023-03-23T01:57:16;9.80;99.90
2407;DHT22;37709;53.480;9.688;2023-03-23T01:59:46;9.80;99.90
2407;DHT22;37709;53.480;9.688;2023-03-23T02:02:23;9.80;99.90
2407;DHT22;37709;53.480;9.688;2023-03-23T02:04:51;9.80;99.90
2407;DHT22;37709;53.480;9.688;2023-03-23T02:07:22;9.80;99.90
2407;DHT22;37709;53.480;9.688;2023-03-23T02:09:50;9.80;99.90
2407;DHT22;37709;53.480;9.688;2023-03-23T02:12:18;9.80;99.90
2407;DHT22;37709;53.480;9.688;2023-03-23T02:14:45;9.80;99.90
2407;DHT22;37709;53.480;9.688;2023-03-23T02:17:33;9.80;99.90
2407;DHT22;37709;53.480;9.688;2023-03-23T02:20:40;9.80;99.90
2407;DHT22;37709;53.480;9.688;2023-03-23T02:23:21;9.80;99.90
2407;DHT22;37709;53.480;9.688;2023-03-23T02:26:02;9.80;99.90
2407;DHT22;37709;53.480;9.688;2023-03-23T02:31:43;9.80;99.90
2407;DHT22;37709;53.480;9.688;2023-03-23T02:34:18;9.80;99.90
2407;DHT22;37709;53.480;9.688;2023-03-23T02:39:45;9.80;99.90
2407;DHT22;37709;53.480;9.688;2023-03-23T02:42:18;9.80;99.90
2407;DHT22;37709;53.480;9.688;2023-03-23T02:44:47;9.80;99.90
2407;DHT22;37709;53.480;9.688;2023-03-23T02:47:19;9.90;99.90
2407;DHT22;37709;53.480;9.688;2023-03-23T02:49:49;9.90;99.90
2407;DHT22;37709;53.480;9.688;2023-03-23T02:52:23;9.90;99.90
2407;DHT22;37709;53.480;9.688;2023-03-23T02:54:53;9.90;99.90
2407;DHT22;37709;53.480;9.688;2023-03-23T02:57:22;9.90;99.90
2407;DHT22;37709;53.480;9.688;2023-03-23T02:59:51;10.00;99.90
2407;DHT22;37709;53.480;9.688;2023-03-23T03:02:28;10.00;99.90
2407;DHT22;37709;53.480;9.688;2023-03-23T03:05:13;10.00;99.90
2407;DHT22;37709;53.480;9.688;2023-03-23T03:11:02;10.00;99.90
2407;DHT22;37709;53.480;9.688;2023-03-23T03:14:08;10.00;99.90
2407;DHT22;37709;53.480;9.688;2023-03-23T03:16:45;10.00;99.90
2407;DHT22;37709;53.480;9.688;2023-03-23T03:19:24;10.00;99.90
2407;DHT22;37709;53.480;9.688;2023-03-23T03:21:54;10.00;99.90
2407;DHT22;37709;53.480;9.688;2023-03-23T03:24:29;9.90;99.90
2407;DHT22;37709;53.480;9.688;2023-03-23T03:26:58;9.90;99.90
2407;DHT22;37709;53.480;9.688;2023-03-23T03:29:40;9.90;99.90
2407;DHT22;37709;53.480;9.688;2023-03-23T03:32:12;9.90;99.90
2407;DHT22;37709;53.480;9.688;2023-03-23T03:34:39;9.90;99.90
2407;DHT22;37709;53.480;9.688;2023-03-23T03:37:06;9.90;99.90
2407;DHT22;37709;53.480;9.688;2023-03-23T03:39:36;9.90;99.90
2407;DHT22;37709;53.480;9.688;2023-03-23T03:42:05;9.90;99.90
2407;DHT22;37709;53.480;9.688;2023-03-23T03:44:33;9.90;99.90
2407;DHT22;37709;53.480;9.688;2023-03-23T03:46:59;9.90;99.90
2407;DHT22;37709;53.480;9.688;2023-03-23T03:49:26;9.90;99.90
2407;DHT22;37709;53.480;9.688;2023-03-23T03:51:54;9.90;99.90
2407;DHT22;37709;53.480;9.688;2023-03-23T03:54:25;9.90;99.90
2407;DHT22;37709;53.480;9.688;2023-03-23T03:56:52;9.90;99.90
2407;DHT22;37709;53.480;9.688;2023-03-23T03:59:42;9.80;99.90
2407;DHT22;37709;53.480;9.688;2023-03-23T04:02:30;9.80;99.90
2407;DHT22;37709;53.480;9.688;2023-03-23T04:04:56;9.80;99.90
2407;DHT22;37709;53.480;9.688;2023-03-23T04:07:22;9.80;99.90
2407;DHT22;37709;53.480;9.688;2023-03-23T04:09:52;9.80;99.90
2407;DHT22;37709;53.480;9.688;2023-03-23T04:12:21;9.80;99.90
2407;DHT22;37709;53.480;9.688;2023-03-23T04:14:56;9.80;99.90
2407;DHT22;37709;53.480;9.688;2023-03-23T04:17:26;9.80;99.90
2407;DHT22;37709;53.480;9.688;2023-03-23T04:19:54;9.80;99.90
2407;DHT22;37709;53.480;9.688;2023-03-23T04:22:24;9.80;99.90
2407;DHT22;37709;53.480;9.688;2023-03-23T04:25:00;9.90;99.90
2407;DHT22;37709;53.480;9.688;2023-03-23T04:27:29;9.90;99.90
2407;DHT22;37709;53.480;9.688;2023-03-23T04:29:58;9.90;99.90
2407;DHT22;37709;53.480;9.688;2023-03-23T04:32:41;9.90;99.90
2407;DHT22;37709;53.480;9.688;2023-03-23T04:35:13;10.00;99.90
2407;DHT22;37709;53.480;9.688;2023-03-23T04:37:51;10.00;99.90
2407;DHT22;37709;53.480;9.688;2023-03-23T04:40:19;10.00;99.90
2407;DHT22;37709;53.480;9.688;2023-03-23T04:42:56;9.90;99.90
2407;DHT22;37709;53.480;9.688;2023-03-23T04:45:33;9.90;99.90
2407;DHT22;37709;53.480;9.688;2023-03-23T04:48:00;10.00;99.90
2407;DHT22;37709;53.480;9.688;2023-03-23T04:50:37;9.90;99.90
2407;DHT22;37709;53.480;9.688;2023-03-23T04:53:14;9.90;99.90
2407;DHT22;37709;53.480;9.688;2023-03-23T04:55:41;9.90;99.90
2407;DHT22;37709;53.480;9.688;2023-03-23T04:58:11;9.80;99.90
2407;DHT22;37709;53.480;9.688;2023-03-23T05:01:03;9.80;99.90
2407;DHT22;37709;53.480;9.688;2023-03-23T05:03:32;9.80;99.90
2407;DHT22;37709;53.480;9.688;2023-03-23T05:06:02;9.80;99.90
2407;DHT22;37709;53.480;9.688;2023-03-23T05:08:28;9.80;99.90
2407;DHT22;37709;53.480;9.688;2023-03-23T05:11:00;9.80;99.90
2407;DHT22;37709;53.480;9.688;2023-03-23T05:13:32;9.80;99.90
2407;DHT22;37709;53.480;9.688;2023-03-23T05:16:03;9.80;99.90
2407;DHT22;37709;53.480;9.688;2023-03-23T05:18:30;9.80;99.90
2407;DHT22;37709;53.480;9.688;2023-03-23T05:21:02;9.70;99.90
2407;DHT22;37709;53.480;9.688;2023-03-23T05:23:34;9.80;99.90
2407;DHT22;37709;53.480;9.688;2023-03-23T05:26:10;9.80;99.90
2407;DHT22;37709;53.480;9.688;2023-03-23T05:28:36;9.80;99.90
2407;DHT22;37709;53.480;9.688;2023-03-23T05:31:19;9.80;99.90
2407;DHT22;37709;53.480;9.688;2023-03-23T05:33:47;9.80;99.90
2407;DHT22;37709;53.480;9.688;2023-03-23T05:36:16;9.70;99.90
2407;DHT22;37709;53.480;9.688;2023-03-23T05:39:00;9.70;99.90
2407;DHT22;37709;53.480;9.688;2023-03-23T05:41:42;9.70;99.90
2407;DHT22;37709;53.480;9.688;2023-03-23T05:44:08;9.80;99.90
2407;DHT22;37709;53.480;9.688;2023-03-23T05:46:46;9.80;99.90
2407;DHT22;37709;53.480;9.688;2023-03-23T05:49:14;9.70;99.90
2407;DHT22;37709;53.480;9.688;2023-03-23T05:51:44;9.70;99.90
2407;DHT22;37709;53.480;9.688;2023-03-23T05:54:12;9.70;99.90
2407;DHT22;37709;53.480;9.688;2023-03-23T05:56:40;9.70;99.90
2407;DHT22;37709;53.480;9.688;2023-03-23T05:59:23;9.70;99.90
2407;DHT22;37709;53.480;9.688;2023-03-23T06:01:52;9.50;99.90
2407;DHT22;37709;53.480;9.688;2023-03-23T06:04:23;9.50;99.90
2407;DHT22;37709;53.480;9.688;2023-03-23T06:07:10;9.40;99.90
2407;DHT22;37709;53.480;9.688;2023-03-23T06:09:45;9.40;99.90
2407;DHT22;37709;53.480;9.688;2023-03-23T06:12:24;9.50;99.90
2407;DHT22;37709;53.480;9.688;2023-03-23T06:15:26;9.60;99.90
2407;DHT22;37709;53.480;9.688;2023-03-23T06:18:17;9.60;99.90
2407;DHT22;37709;53.480;9.688;2023-03-23T06:21:06;9.80;99.90
2407;DHT22;37709;53.480;9.688;2023-03-23T06:23:50;9.80;99.90
2407;DHT22;37709;53.480;9.688;2023-03-23T06:26:19;10.00;99.90
2407;DHT22;37709;53.480;9.688;2023-03-23T06:28:51;10.10;99.90
2407;DHT22;37709;53.480;9.688;2023-03-23T06:31:17;10.10;99.90
2407;DHT22;37709;53.480;9.688;2023-03-23T06:33:48;10.20;99.90
2407;DHT22;37709;53.480;9.688;2023-03-23T06:36:26;10.30;99.90
2407;DHT22;37709;53.480;9.688;2023-03-23T06:39:03;10.40;99.90
2407;DHT22;37709;53.480;9.688;2023-03-23T06:41:51;10.60;99.90
2407;DHT22;37709;53.480;9.688;2023-03-23T06:44:18;10.90;99.90
2407;DHT22;37709;53.480;9.688;2023-03-23T06:46:44;11.00;99.90
2407;DHT22;37709;53.480;9.688;2023-03-23T06:49:21;11.30;99.90
2407;DHT22;37709;53.480;9.688;2023-03-23T06:51:58;11.60;99.90
2407;DHT22;37709;53.480;9.688;2023-03-23T06:54:26;11.70;99.90
2407;DHT22;37709;53.480;9.688;2023-03-23T06:56:54;11.50;99.90
2407;DHT22;37709;53.480;9.688;2023-03-23T06:59:20;11.70;99.90
2407;DHT22;37709;53.480;9.688;2023-03-23T07:01:46;12.50;99.90
2407;DHT22;37709;53.480;9.688;2023-03-23T07:04:14;13.00;99.90
2407;DHT22;37709;53.480;9.688;2023-03-23T07:07:02;13.40;99.90
2407;DHT22;37709;53.480;9.688;2023-03-23T07:09:32;13.50;99.90
2407;DHT22;37709;53.480;9.688;2023-03-23T07:11:59;13.00;99.90
2407;DHT22;37709;53.480;9.688;2023-03-23T07:14:31;12.70;99.90
2407;DHT22;37709;53.480;9.688;2023-03-23T07:16:58;13.10;99.90
2407;DHT22;37709;53.480;9.688;2023-03-23T07:19:25;12.80;99.90
2407;DHT22;37709;53.480;9.688;2023-03-23T07:21:52;12.70;99.90
2407;DHT22;37709;53.480;9.688;2023-03-23T07:24:22;13.80;99.90
2407;DHT22;37709;53.480;9.688;2023-03-23T07:27:00;14.50;99.90
2407;DHT22;37709;53.480;9.688;2023-03-23T07:29:27;14.00;99.90
2407;DHT22;37709;53.480;9.688;2023-03-23T07:32:04;13.80;99.90
2407;DHT22;37709;53.480;9.688;2023-03-23T07:34:31;13.40;99.90
2407;DHT22;37709;53.480;9.688;2023-03-23T07:37:09;13.00;99.90
2407;DHT22;37709;53.480;9.688;2023-03-23T07:39:37;12.80;99.90
2407;DHT22;37709;53.480;9.688;2023-03-23T07:42:03;12.60;99.90
2407;DHT22;37709;53.480;9.688;2023-03-23T07:44:40;12.60;99.90
2407;DHT22;37709;53.480;9.688;2023-03-23T07:47:10;12.70;99.90
2407;DHT22;37709;53.480;9.688;2023-03-23T07:49:36;12.90;99.90
2407;DHT22;37709;53.480;9.688;2023-03-23T07:52:38;12.90;99.90
2407;DHT22;37709;53.480;9.688;2023-03-23T07:55:07;12.70;99.90
2407;DHT22;37709;53.480;9.688;2023-03-23T07:57:55;12.60;99.90
2407;DHT22;37709;53.480;9.688;2023-03-23T08:00:22;12.50;99.90
2407;DHT22;37709;53.480;9.688;2023-03-23T08:02:54;12.20;99.90
2407;DHT22;37709;53.480;9.688;2023-03-23T08:06:00;12.10;99.90
2407;DHT22;37709;53.480;9.688;2023-03-23T08:08:44;12.00;99.90
2407;DHT22;37709;53.480;9.688;2023-03-23T08:11:43;11.70;99.90
2407;DHT22;37709;53.480;9.688;2023-03-23T08:14:35;11.60;99.90
2407;DHT22;37709;53.480;9.688;2023-03-23T08:17:18;11.40;99.90
2407;DHT22;37709;53.480;9.688;2023-03-23T08:20:06;11.20;99.90
2407;DHT22;37709;53.480;9.688;2023-03-23T08:22:57;10.90;99.90
2407;DHT22;37709;53.480;9.688;2023-03-23T08:25:48;10.40;99.90
2407;DHT22;37709;53.480;9.688;2023-03-23T08:28:24;10.30;99.90
2407;DHT22;37709;53.480;9.688;2023-03-23T08:31:25;10.50;99.90
2407;DHT22;37709;53.480;9.688;2023-03-23T08:34:05;10.90;99.90
2407;DHT22;37709;53.480;9.688;2023-03-23T08:36:43;11.20;99.90
2407;DHT22;37709;53.480;9.688;2023-03-23T08:39:12;11.40;99.90
2407;DHT22;37709;53.480;9.688;2023-03-23T08:42:00;11.70;99.90
2407;DHT22;37709;53.480;9.688;2023-03-23T08:44:49;11.70;99.90
2407;DHT22;37709;53.480;9.688;2023-03-23T08:47:27;11.80;99.90
2407;DHT22;37709;53.480;9.688;2023-03-23T08:50:14;12.20;99.90
2407;DHT22;37709;53.480;9.688;2023-03-23T08:52:57;12.20;99.90
2407;DHT22;37709;53.480;9.688;2023-03-23T08:55:42;12.50;99.90
2407;DHT22;37709;53.480;9.688;2023-03-23T08:58:45;13.50;99.90
2407;DHT22;37709;53.480;9.688;2023-03-23T09:01:33;13.50;99.90
2407;DHT22;37709;53.480;9.688;2023-03-23T09:04:13;13.20;99.90
2407;DHT22;37709;53.480;9.688;2023-03-23T09:06:56;13.00;99.90
2407;DHT22;37709;53.480;9.688;2023-03-23T09:09:24;13.00;99.90
2407;DHT22;37709;53.480;9.688;2023-03-23T09:11:50;12.80;99.90
2407;DHT22;37709;53.480;9.688;2023-03-23T09:14:16;12.80;99.90
2407;DHT22;37709;53.480;9.688;2023-03-23T09:16:43;12.50;99.90
2407;DHT22;37709;53.480;9.688;2023-03-23T09:19:09;12.20;99.90
2407;DHT22;37709;53.480;9.688;2023-03-23T09:21:35;12.20;99.90
2407;DHT22;37709;53.480;9.688;2023-03-23T09:24:02;12.20;99.90
2407;DHT22;37709;53.480;9.688;2023-03-23T09:26:28;12.10;99.90
2407;DHT22;37709;53.480;9.688;2023-03-23T09:28:54;12.10;99.90
2407;DHT22;37709;53.480;9.688;2023-03-23T09:31:23;12.50;99.90
2407;DHT22;37709;53.480;9.688;2023-03-23T09:33:53;13.10;99.90
2407;DHT22;37709;53.480;9.688;2023-03-23T09:36:22;13.60;99.90
2407;DHT22;37709;53.480;9.688;2023-03-23T09:38:49;13.60;99.90
2407;DHT22;37709;53.480;9.688;2023-03-23T09:44:00;14.00;99.90
2407;DHT22;37709;53.480;9.688;2023-03-23T09:52:14;15.50;99.90
2407;DHT22;37709;53.480;9.688;2023-03-23T09:54:47;15.90;99.90
2407;DHT22;37709;53.480;9.688;2023-03-23T09:57:20;15.90;99.90
2407;DHT22;37709;53.480;9.688;2023-03-23T10:00:09;16.80;99.90
2407;DHT22;37709;53.480;9.688;2023-03-23T10:02:41;16.80;99.90
2407;DHT22;37709;53.480;9.688;2023-03-23T10:05:34;16.70;99.90
2407;DHT22;37709;53.480;9.688;2023-03-23T10:08:05;19.20;99.90
2407;DHT22;37709;53.480;9.688;2023-03-23T10:10:53;20.60;99.90
2407;DHT22;37709;53.480;9.688;2023-03-23T10:16:29;22.40;97.10
2407;DHT22;37709;53.480;9.688;2023-03-23T10:19:59;21.10;98.40
2407;DHT22;37709;53.480;9.688;2023-03-23T10:22:03;20.20;96.90
2407;DHT22;37709;53.480;9.688;2023-03-23T10:30:46;20.80;95.90
2407;DHT22;37709;53.480;9.688;2023-03-23T10:39:01;18.10;98.30
2407;DHT22;37709;53.480;9.688;2023-03-23T10:41:29;16.80;99.90
2407;DHT22;37709;53.480;9.688;2023-03-23T10:43:56;16.50;99.90
2407;DHT22;37709;53.480;9.688;2023-03-23T10:46:34;16.00;99.90
2407;DHT22;37709;53.480;9.688;2023-03-23T10:49:06;15.60;99.90
2407;DHT22;37709;53.480;9.688;2023-03-23T10:51:39;15.50;99.90
2407;DHT22;37709;53.480;9.688;2023-03-23T10:54:06;16.40;99.90
2407;DHT22;37709;53.480;9.688;2023-03-23T10:56:42;17.10;99.90
2407;DHT22;37709;53.480;9.688;2023-03-23T10:59:15;16.90;99.90
2407;DHT22;37709;53.480;9.688;2023-03-23T11:01:50;17.00;99.90
2407;DHT22;37709;53.480;9.688;2023-03-23T11:04:17;17.00;99.90
2407;DHT22;37709;53.480;9.688;2023-03-23T11:06:48;16.90;99.90
2407;DHT22;37709;53.480;9.688;2023-03-23T11:09:18;16.30;99.90
2407;DHT22;37709;53.480;9.688;2023-03-23T11:11:53;16.20;99.90
2407;DHT22;37709;53.480;9.688;2023-03-23T11:14:31;16.30;99.90
2407;DHT22;37709;53.480;9.688;2023-03-23T11:17:00;16.40;99.90
2407;DHT22;37709;53.480;9.688;2023-03-23T11:19:33;16.10;99.90
2407;DHT22;37709;53.480;9.688;2023-03-23T11:24:33;16.60;99.90
2407;DHT22;37709;53.480;9.688;2023-03-23T11:27:00;18.20;99.90
2407;DHT22;37709;53.480;9.688;2023-03-23T11:29:28;19.10;99.90
2407;DHT22;37709;53.480;9.688;2023-03-23T11:34:31;17.80;99.90
2407;DHT22;37709;53.480;9.688;2023-03-23T11:37:11;17.40;99.90
2407;DHT22;37709;53.480;9.688;2023-03-23T11:47:59;17.30;99.90
2407;DHT22;37709;53.480;9.688;2023-03-23T11:50:49;16.30;99.90
2407;DHT22;37709;53.480;9.688;2023-03-23T11:53:34;15.40;99.90
2407;DHT22;37709;53.480;9.688;2023-03-23T11:56:15;14.90;99.90
2407;DHT22;37709;53.480;9.688;2023-03-23T11:58:43;14.70;99.90
2407;DHT22;37709;53.480;9.688;2023-03-23T12:01:20;14.60;99.90
2407;DHT22;37709;53.480;9.688;2023-03-23T12:03:57;14.90;99.90
2407;DHT22;37709;53.480;9.688;2023-03-23T12:06:57;14.90;99.90
2407;DHT22;37709;53.480;9.688;2023-03-23T12:12:54;14.50;99.90
2407;DHT22;37709;53.480;9.688;2023-03-23T12:15:24;14.00;99.90
2407;DHT22;37709;53.480;9.688;2023-03-23T12:19:01;13.20;99.90
2407;DHT22;37709;53.480;9.688;2023-03-23T12:24:25;13.30;99.90
2407;DHT22;37709;53.480;9.688;2023-03-23T12:27:11;14.20;99.90
2407;DHT22;37709;53.480;9.688;2023-03-23T12:30:02;14.30;99.90
2407;DHT22;37709;53.480;9.688;2023-03-23T12:32:43;14.40;99.90
2407;DHT22;37709;53.480;9.688;2023-03-23T12:38:18;19.10;99.90
2407;DHT22;37709;53.480;9.688;2023-03-23T12:48:56;16.90;99.90
2407;DHT22;37709;53.480;9.688;2023-03-23T12:51:32;19.70;99.90
2407;DHT22;37709;53.480;9.688;2023-03-23T12:54:12;21.00;99.90
2407;DHT22;37709;53.480;9.688;2023-03-23T12:56:53;22.20;99.90
2407;DHT22;37709;53.480;9.688;2023-03-23T12:59:43;22.90;99.90
2407;DHT22;37709;53.480;9.688;2023-03-23T13:02:36;20.30;99.90
2407;DHT22;37709;53.480;9.688;2023-03-23T13:05:29;22.90;99.90
2407;DHT22;37709;53.480;9.688;2023-03-23T13:08:02;22.80;99.90
2407;DHT22;37709;53.480;9.688;2023-03-23T13:10:36;22.20;95.10
2407;DHT22;37709;53.480;9.688;2023-03-23T13:13:13;23.20;94.00
2407;DHT22;37709;53.480;9.688;2023-03-23T13:16:05;23.10;94.30
2407;DHT22;37709;53.480;9.688;2023-03-23T13:21:13;22.80;95.10
2407;DHT22;37709;53.480;9.688;2023-03-23T13:23:50;22.20;93.30
2407;DHT22;37709;53.480;9.688;2023-03-23T13:26:20;21.20;94.90
2407;DHT22;37709;53.480;9.688;2023-03-23T13:28:58;22.30;94.20
2407;DHT22;37709;53.480;9.688;2023-03-23T13:31:33;21.70;93.40
2407;DHT22;37709;53.480;9.688;2023-03-23T13:34:16;19.60;95.10
2407;DHT22;37709;53.480;9.688;2023-03-23T13:36:52;18.30;97.00
2407;DHT22;37709;53.480;9.688;2023-03-23T13:39:22;20.90;95.70
2407;DHT22;37709;53.480;9.688;2023-03-23T13:44:43;23.20;91.80
2407;DHT22;37709;53.480;9.688;2023-03-23T13:52:54;16.80;99.90
2407;DHT22;37709;53.480;9.688;2023-03-23T13:55:51;12.70;99.90
2407;DHT22;37709;53.480;9.688;2023-03-23T13:58:23;11.20;99.90
2407;DHT22;37709;53.480;9.688;2023-03-23T14:01:12;11.20;99.90
2407;DHT22;37709;53.480;9.688;2023-03-23T14:03:41;10.90;99.90
2407;DHT22;37709;53.480;9.688;2023-03-23T14:06:21;10.60;99.90
2407;DHT22;37709;53.480;9.688;2023-03-23T14:09:18;10.50;99.90
2407;DHT22;37709;53.480;9.688;2023-03-23T14:12:06;10.20;99.90
2407;DHT22;37709;53.480;9.688;2023-03-23T14:14:46;10.50;99.90
2407;DHT22;37709;53.480;9.688;2023-03-23T14:17:16;11.70;99.90
2407;DHT22;37709;53.480;9.688;2023-03-23T14:19:47;12.90;99.90
2407;DHT22;37709;53.480;9.688;2023-03-23T14:24:52;15.40;99.90
2407;DHT22;37709;53.480;9.688;2023-03-23T14:27:21;15.00;99.90
2407;DHT22;37709;53.480;9.688;2023-03-23T14:30:17;13.40;99.90
2407;DHT22;37709;53.480;9.688;2023-03-23T14:32:44;14.20;99.90
2407;DHT22;37709;53.480;9.688;2023-03-23T14:37:48;15.90;99.90
2407;DHT22;37709;53.480;9.688;2023-03-23T14:40:17;16.00;99.90
2407;DHT22;37709;53.480;9.688;2023-03-23T14:42:44;16.20;99.90
2407;DHT22;37709;53.480;9.688;2023-03-23T14:45:15;16.60;99.90
2407;DHT22;37709;53.480;9.688;2023-03-23T14:47:54;15.80;99.90
2407;DHT22;37709;53.480;9.688;2023-03-23T14:52:50;15.20;99.90
2407;DHT22;37709;53.480;9.688;2023-03-23T14:55:21;14.50;99.90
2407;DHT22;37709;53.480;9.688;2023-03-23T14:57:49;13.90;99.90
2407;DHT22;37709;53.480;9.688;2023-03-23T15:00:26;13.80;99.90
2407;DHT22;37709;53.480;9.688;2023-03-23T15:02:57;13.70;99.90
2407;DHT22;37709;53.480;9.688;2023-03-23T15:05:29;13.90;99.90
2407;DHT22;37709;53.480;9.688;2023-03-23T15:10:55;13.60;99.90
2407;DHT22;37709;53.480;9.688;2023-03-23T15:13:23;13.30;99.90
2407;DHT22;37709;53.480;9.688;2023-03-23T15:15:49;13.30;99.90
2407;DHT22;37709;53.480;9.688;2023-03-23T15:18:29;13.20;99.90
2407;DHT22;37709;53.480;9.688;2023-03-23T15:20:56;13.20;99.90
2407;DHT22;37709;53.480;9.688;2023-03-23T15:23:28;13.90;99.90
2407;DHT22;37709;53.480;9.688;2023-03-23T15:26:05;14.90;99.90
2407;DHT22;37709;53.480;9.688;2023-03-23T15:28:33;15.20;99.90
2407;DHT22;37709;53.480;9.688;2023-03-23T15:31:06;15.10;99.90
2407;DHT22;37709;53.480;9.688;2023-03-23T15:33:36;14.80;99.90
2407;DHT22;37709;53.480;9.688;2023-03-23T15:36:16;14.70;99.90
2407;DHT22;37709;53.480;9.688;2023-03-23T15:38:44;14.80;99.90
2407;DHT22;37709;53.480;9.688;2023-03-23T15:41:26;14.60;99.90
2407;DHT22;37709;53.480;9.688;2023-03-23T15:43:57;14.00;99.90
2407;DHT22;37709;53.480;9.688;2023-03-23T15:46:27;13.60;99.90
2407;DHT22;37709;53.480;9.688;2023-03-23T15:49:07;13.20;99.90
2407;DHT22;37709;53.480;9.688;2023-03-23T15:51:34;12.90;99.90
2407;DHT22;37709;53.480;9.688;2023-03-23T15:54:01;12.70;99.90
2407;DHT22;37709;53.480;9.688;2023-03-23T15:56:28;12.80;99.90
2407;DHT22;37709;53.480;9.688;2023-03-23T15:58:57;12.90;99.90
2407;DHT22;37709;53.480;9.688;2023-03-23T16:01:27;12.90;99.90
2407;DHT22;37709;53.480;9.688;2023-03-23T16:03:57;12.80;99.90
2407;DHT22;37709;53.480;9.688;2023-03-23T16:06:26;12.60;99.90
2407;DHT22;37709;53.480;9.688;2023-03-23T16:08:54;12.30;99.90
2407;DHT22;37709;53.480;9.688;2023-03-23T16:11:24;11.90;99.90
2407;DHT22;37709;53.480;9.688;2023-03-23T16:13:51;11.40;99.90
2407;DHT22;37709;53.480;9.688;2023-03-23T16:16:25;11.30;99.90
2407;DHT22;37709;53.480;9.688;2023-03-23T16:18:53;11.30;99.90
2407;DHT22;37709;53.480;9.688;2023-03-23T16:21:20;11.30;99.90
2407;DHT22;37709;53.480;9.688;2023-03-23T16:23:49;11.00;99.90
2407;DHT22;37709;53.480;9.688;2023-03-23T16:26:17;10.60;99.90
2407;DHT22;37709;53.480;9.688;2023-03-23T16:28:44;10.40;99.90
2407;DHT22;37709;53.480;9.688;2023-03-23T16:31:12;10.30;99.90
2407;DHT22;37709;53.480;9.688;2023-03-23T16:33:40;10.20;99.90
2407;DHT22;37709;53.480;9.688;2023-03-23T16:36:11;10.20;99.90
2407;DHT22;37709;53.480;9.688;2023-03-23T16:38:39;10.20;99.90
2407;DHT22;37709;53.480;9.688;2023-03-23T16:41:17;10.20;99.90
2407;DHT22;37709;53.480;9.688;2023-03-23T16:43:44;10.30;99.90
2407;DHT22;37709;53.480;9.688;2023-03-23T16:46:11;10.30;99.90
2407;DHT22;37709;53.480;9.688;2023-03-23T16:48:40;10.20;99.90
2407;DHT22;37709;53.480;9.688;2023-03-23T16:51:08;10.00;99.90
2407;DHT22;37709;53.480;9.688;2023-03-23T16:53:36;10.10;99.90
2407;DHT22;37709;53.480;9.688;2023-03-23T16:56:04;10.10;99.90
2407;DHT22;37709;53.480;9.688;2023-03-23T16:58:31;10.10;99.90
2407;DHT22;37709;53.480;9.688;2023-03-23T17:01:00;10.10;99.90
2407;DHT22;37709;53.480;9.688;2023-03-23T17:03:28;9.90;99.90
2407;DHT22;37709;53.480;9.688;2023-03-23T17:05:55;9.90;99.90
2407;DHT22;37709;53.480;9.688;2023-03-23T17:08:25;10.00;99.90
2407;DHT22;37709;53.480;9.688;2023-03-23T17:10:52;10.00;99.90
2407;DHT22;37709;53.480;9.688;2023-03-23T17:13:20;10.10;99.90
2407;DHT22;37709;53.480;9.688;2023-03-23T17:15:51;10.10;99.90
2407;DHT22;37709;53.480;9.688;2023-03-23T17:18:19;10.10;99.90
2407;DHT22;37709;53.480;9.688;2023-03-23T17:20:48;10.00;99.90
2407;DHT22;37709;53.480;9.688;2023-03-23T17:23:15;10.00;99.90
2407;DHT22;37709;53.480;9.688;2023-03-23T17:25:45;9.80;99.90
2407;DHT22;37709;53.480;9.688;2023-03-23T17:28:13;9.60;99.90
2407;DHT22;37709;53.480;9.688;2023-03-23T17:30:42;9.40;99.90
2407;DHT22;37709;53.480;9.688;2023-03-23T17:33:10;9.30;99.90
2407;DHT22;37709;53.480;9.688;2023-03-23T17:35:38;9.20;99.90
2407;DHT22;37709;53.480;9.688;2023-03-23T17:38:06;9.00;99.90
2407;DHT22;37709;53.480;9.688;2023-03-23T17:40:33;9.00;99.90
2407;DHT22;37709;53.480;9.688;2023-03-23T17:43:01;8.90;99.90
2407;DHT22;37709;53.480;9.688;2023-03-23T17:45:28;8.80;99.90
2407;DHT22;37709;53.480;9.688;2023-03-23T17:47:55;8.80;99.90
2407;DHT22;37709;53.480;9.688;2023-03-23T17:50:22;8.80;99.90
2407;DHT22;37709;53.480;9.688;2023-03-23T17:52:49;8.70;99.90
2407;DHT22;37709;53.480;9.688;2023-03-23T17:55:17;8.70;99.90
2407;DHT22;37709;53.480;9.688;2023-03-23T17:57:44;8.70;99.90
2407;DHT22;37709;53.480;9.688;2023-03-23T18:00:12;8.60;99.90